sensor_id;sensor_type;location;lat;lon;timestamp;pressure;altitude;pressure_sealevel;temperature;humidity
79129;BME280;68529;43.286;23.360;2023-12-07T00:00:28;99157.56;;;3.85;69.17
79129;BME280;68529;43.286;23.360;2023-12-07T00:02:53;99157.69;;;3.73;69.72
79129;BME280;68529;43.286;23.360;2023-12-07T00:05:19;99155.16;;;3.66;69.65
79129;BME280;68529;43.286;23.360;2023-12-07T00:07:44;99143.03;;;3.65;69.82
79129;BME280;68529;43.286;23.360;2023-12-07T00:10:09;99150.81;;;3.65;69.85
79129;BME280;68529;43.286;23.360;2023-12-07T00:12:35;99149.09;;;3.64;69.50
79129;BME280;68529;43.286;23.360;2023-12-07T00:15:00;99153.41;;;3.66;69.89
79129;BME280;68529;43.286;23.360;2023-12-07T00:17:26;99156.88;;;3.68;69.96
79129;BME280;68529;43.286;23.360;2023-12-07T00:19:51;99163.75;;;3.71;69.67
79129;BME280;68529;43.286;23.360;2023-12-07T00:22:19;99165.44;;;3.75;69.54
79129;BME280;68529;43.286;23.360;2023-12-07T00:24:44;99169.75;;;3.79;69.34
79129;BME280;68529;43.286;23.360;2023-12-07T00:27:10;99170.59;;;3.81;69.23
79129;BME280;68529;43.286;23.360;2023-12-07T00:29:37;99179.19;;;3.86;69.20
79129;BME280;68529;43.286;23.360;2023-12-07T00:32:02;99171.44;;;3.84;69.32
79129;BME280;68529;43.286;23.360;2023-12-07T00:34:28;99171.47;;;3.81;69.36
79129;BME280;68529;43.286;23.360;2023-12-07T00:36:53;99179.25;;;3.80;69.31
79129;BME280;68529;43.286;23.360;2023-12-07T00:39:19;99184.53;;;3.71;69.72
79129;BME280;68529;43.286;23.360;2023-12-07T00:41:44;99182.19;;;3.40;70.43
79129;BME280;68529;43.286;23.360;2023-12-07T00:44:12;99170.88;;;3.47;70.40
79129;BME280;68529;43.286;23.360;2023-12-07T00:46:37;99170.81;;;3.53;70.44
79129;BME280;68529;43.286;23.360;2023-12-07T00:49:02;99169.00;;;3.65;70.02
79129;BME280;68529;43.286;23.360;2023-12-07T00:51:28;99167.22;;;3.73;69.84
79129;BME280;68529;43.286;23.360;2023-12-07T00:53:53;99175.81;;;3.78;69.75
79129;BME280;68529;43.286;23.360;2023-12-07T00:56:18;99173.19;;;3.81;69.25
79129;BME280;68529;43.286;23.360;2023-12-07T00:58:44;99174.00;;;3.86;69.31
79129;BME280;68529;43.286;23.360;2023-12-07T01:01:09;99173.13;;;3.85;69.18
79129;BME280;68529;43.286;23.360;2023-12-07T01:03:34;99173.97;;;3.89;68.82
79129;BME280;68529;43.286;23.360;2023-12-07T01:06:00;99176.56;;;3.93;68.88
79129;BME280;68529;43.286;23.360;2023-12-07T01:08:25;99176.59;;;3.90;69.03
79129;BME280;68529;43.286;23.360;2023-12-07T01:10:51;99174.03;;;3.83;69.50
79129;BME280;68529;43.286;23.360;2023-12-07T01:13:16;99172.44;;;3.71;70.04
79129;BME280;68529;43.286;23.360;2023-12-07T01:15:41;99172.59;;;3.51;70.34
79129;BME280;68529;43.286;23.360;2023-12-07T01:18:07;99173.47;;;3.44;70.70
79129;BME280;68529;43.286;23.360;2023-12-07T01:20:32;99170.84;;;3.50;70.43
79129;BME280;68529;43.286;23.360;2023-12-07T01:22:58;99176.94;;;3.45;70.77
79129;BME280;68529;43.286;23.360;2023-12-07T01:25:23;99176.06;;;3.47;70.68
79129;BME280;68529;43.286;23.360;2023-12-07T01:27:49;99177.69;;;3.58;70.26
79129;BME280;68529;43.286;23.360;2023-12-07T01:30:15;99171.59;;;3.63;70.07
79129;BME280;68529;43.286;23.360;2023-12-07T01:32:41;99169.03;;;3.62;70.42
79129;BME280;68529;43.286;23.360;2023-12-07T01:35:06;99170.00;;;3.47;70.90
79129;BME280;68529;43.286;23.360;2023-12-07T01:37:32;99170.91;;;3.43;71.04
79129;BME280;68529;43.286;23.360;2023-12-07T01:39:57;99171.72;;;3.49;70.69
79129;BME280;68529;43.286;23.360;2023-12-07T01:42:23;99161.22;;;3.63;70.22
79129;BME280;68529;43.286;23.360;2023-12-07T01:44:48;99162.94;;;3.64;70.38
79129;BME280;68529;43.286;23.360;2023-12-07T01:47:14;99170.75;;;3.63;70.30
79129;BME280;68529;43.286;23.360;2023-12-07T01:49:40;99164.66;;;3.64;70.60
79129;BME280;68529;43.286;23.360;2023-12-07T01:52:06;99162.06;;;3.64;70.42
79129;BME280;68529;43.286;23.360;2023-12-07T01:54:33;99159.53;;;3.54;70.60
79129;BME280;68529;43.286;23.360;2023-12-07T01:56:59;99157.75;;;3.66;70.41
79129;BME280;68529;43.286;23.360;2023-12-07T01:59:24;99156.81;;;3.73;69.86
79129;BME280;68529;43.286;23.360;2023-12-07T02:01:50;99161.97;;;3.79;69.47
79129;BME280;68529;43.286;23.360;2023-12-07T02:04:16;99164.53;;;3.80;69.97
79129;BME280;68529;43.286;23.360;2023-12-07T02:06:42;99162.00;;;3.73;70.06
79129;BME280;68529;43.286;23.360;2023-12-07T02:09:07;99159.44;;;3.70;70.40
79129;BME280;68529;43.286;23.360;2023-12-07T02:11:34;99160.34;;;3.64;70.54
79129;BME280;68529;43.286;23.360;2023-12-07T02:13:59;99156.06;;;3.60;70.90
79129;BME280;68529;43.286;23.360;2023-12-07T02:16:30;99162.16;;;3.53;71.06
79129;BME280;68529;43.286;23.360;2023-12-07T02:22:03;99162.09;;;3.65;70.74
79129;BME280;68529;43.286;23.360;2023-12-07T02:24:33;99155.94;;;3.75;70.30
79129;BME280;68529;43.286;23.360;2023-12-07T02:27:03;99157.63;;;3.79;69.83
79129;BME280;68529;43.286;23.360;2023-12-07T02:29:28;99156.75;;;3.82;69.58
79129;BME280;68529;43.286;23.360;2023-12-07T02:31:53;99155.81;;;3.87;69.57
79129;BME280;68529;43.286;23.360;2023-12-07T02:34:19;99154.03;;;3.91;69.37
79129;BME280;68529;43.286;23.360;2023-12-07T02:36:45;99151.38;;;3.97;69.52
79129;BME280;68529;43.286;23.360;2023-12-07T02:39:13;99159.16;;;4.00;69.54
79129;BME280;68529;43.286;23.360;2023-12-07T02:41:40;99156.56;;;4.01;69.55
79129;BME280;68529;43.286;23.360;2023-12-07T02:44:06;99149.63;;;4.02;69.67
79129;BME280;68529;43.286;23.360;2023-12-07T02:46:33;99147.91;;;3.99;69.56
79129;BME280;68529;43.286;23.360;2023-12-07T02:48:58;99153.13;;;3.98;69.42
79129;BME280;68529;43.286;23.360;2023-12-07T02:51:24;99153.09;;;3.99;69.36
79129;BME280;68529;43.286;23.360;2023-12-07T02:53:49;99167.78;;;4.03;69.53
79129;BME280;68529;43.286;23.360;2023-12-07T02:56:14;99168.63;;;4.07;69.33
79129;BME280;68529;43.286;23.360;2023-12-07T02:58:40;99171.19;;;4.08;69.23
79129;BME280;68529;43.286;23.360;2023-12-07T03:01:05;99163.41;;;4.10;69.19
79129;BME280;68529;43.286;23.360;2023-12-07T03:03:31;99171.16;;;4.11;69.09
79129;BME280;68529;43.286;23.360;2023-12-07T03:05:56;99168.59;;;4.10;69.34
79129;BME280;68529;43.286;23.360;2023-12-07T03:08:21;99181.63;;;4.07;69.58
79129;BME280;68529;43.286;23.360;2023-12-07T03:10:47;99178.13;;;4.08;69.41
79129;BME280;68529;43.286;23.360;2023-12-07T03:13:13;99185.94;;;4.08;69.46
79129;BME280;68529;43.286;23.360;2023-12-07T03:15:38;99182.47;;;4.09;69.44
79129;BME280;68529;43.286;23.360;2023-12-07T03:18:04;99179.03;;;4.07;69.48
79129;BME280;68529;43.286;23.360;2023-12-07T03:20:30;99182.50;;;4.03;69.50
79129;BME280;68529;43.286;23.360;2023-12-07T03:22:56;99185.94;;;4.05;69.39
79129;BME280;68529;43.286;23.360;2023-12-07T03:25:21;99190.34;;;4.00;69.24
79129;BME280;68529;43.286;23.360;2023-12-07T03:27:47;99188.59;;;4.00;69.36
79129;BME280;68529;43.286;23.360;2023-12-07T03:30:12;99177.28;;;4.06;68.89
79129;BME280;68529;43.286;23.360;2023-12-07T03:32:38;99185.88;;;4.14;68.66
79129;BME280;68529;43.286;23.360;2023-12-07T03:35:03;99181.50;;;4.16;68.97
79129;BME280;68529;43.286;23.360;2023-12-07T03:37:29;99187.59;;;4.15;69.03
79129;BME280;68529;43.286;23.360;2023-12-07T03:39:54;99186.75;;;4.11;69.24
79129;BME280;68529;43.286;23.360;2023-12-07T03:42:20;99185.06;;;4.09;69.21
79129;BME280;68529;43.286;23.360;2023-12-07T03:44:45;99191.06;;;4.14;69.20
79129;BME280;68529;43.286;23.360;2023-12-07T03:47:11;99182.38;;;4.18;69.40
79129;BME280;68529;43.286;23.360;2023-12-07T03:49:36;99187.53;;;4.23;69.25
79129;BME280;68529;43.286;23.360;2023-12-07T03:52:04;99192.72;;;4.23;69.16
79129;BME280;68529;43.286;23.360;2023-12-07T03:54:29;99191.00;;;4.23;69.21
79129;BME280;68529;43.286;23.360;2023-12-07T03:56:55;99195.25;;;4.27;69.20
79129;BME280;68529;43.286;23.360;2023-12-07T03:59:20;99195.25;;;4.29;69.13
79129;BME280;68529;43.286;23.360;2023-12-07T04:01:45;99201.34;;;4.29;69.04
79129;BME280;68529;43.286;23.360;2023-12-07T04:04:11;99198.72;;;4.29;68.86
79129;BME280;68529;43.286;23.360;2023-12-07T04:06:36;99197.00;;;4.28;68.67
79129;BME280;68529;43.286;23.360;2023-12-07T04:09:02;99198.72;;;4.29;68.84
79129;BME280;68529;43.286;23.360;2023-12-07T04:11:29;99200.69;;;4.07;69.70
79129;BME280;68529;43.286;23.360;2023-12-07T04:13:54;99205.97;;;3.95;70.48
79129;BME280;68529;43.286;23.360;2023-12-07T04:16:20;99212.03;;;3.96;70.58
79129;BME280;68529;43.286;23.360;2023-12-07T04:18:46;99213.75;;;3.98;70.38
79129;BME280;68529;43.286;23.360;2023-12-07T04:21:11;99210.22;;;4.05;69.84
79129;BME280;68529;43.286;23.360;2023-12-07T04:23:37;99217.97;;;4.13;69.53
79129;BME280;68529;43.286;23.360;2023-12-07T04:26:02;99217.03;;;4.17;69.45
79129;BME280;68529;43.286;23.360;2023-12-07T04:28:27;99223.94;;;4.21;69.26
79129;BME280;68529;43.286;23.360;2023-12-07T04:30:53;99218.75;;;4.21;69.09
79129;BME280;68529;43.286;23.360;2023-12-07T04:33:18;99227.47;;;4.14;69.59
79129;BME280;68529;43.286;23.360;2023-12-07T04:35:44;99227.50;;;4.08;69.83
79129;BME280;68529;43.286;23.360;2023-12-07T04:38:09;99224.16;;;3.94;70.35
79129;BME280;68529;43.286;23.360;2023-12-07T04:40:35;99225.19;;;3.75;71.17
79129;BME280;68529;43.286;23.360;2023-12-07T04:43:00;99223.50;;;3.66;71.51
79129;BME280;68529;43.286;23.360;2023-12-07T04:45:26;99224.28;;;3.82;71.10
79129;BME280;68529;43.286;23.360;2023-12-07T04:47:51;99231.97;;;3.95;70.54
79129;BME280;68529;43.286;23.360;2023-12-07T04:50:16;99234.47;;;4.06;69.96
79129;BME280;68529;43.286;23.360;2023-12-07T04:52:42;99238.81;;;4.07;70.26
79129;BME280;68529;43.286;23.360;2023-12-07T04:55:08;99242.34;;;3.98;70.50
79129;BME280;68529;43.286;23.360;2023-12-07T04:57:36;99248.31;;;4.05;70.11
79129;BME280;68529;43.286;23.360;2023-12-07T05:00:05;99243.94;;;4.13;69.93
79129;BME280;68529;43.286;23.360;2023-12-07T05:02:35;99239.56;;;4.18;69.70
79129;BME280;68529;43.286;23.360;2023-12-07T05:05:00;99248.19;;;4.20;69.83
79129;BME280;68529;43.286;23.360;2023-12-07T05:07:26;99252.50;;;4.23;69.77
79129;BME280;68529;43.286;23.360;2023-12-07T05:09:51;99251.63;;;4.22;69.66
79129;BME280;68529;43.286;23.360;2023-12-07T05:12:17;99258.56;;;4.26;69.59
79129;BME280;68529;43.286;23.360;2023-12-07T05:14:43;99254.19;;;4.30;69.42
79129;BME280;68529;43.286;23.360;2023-12-07T05:17:08;99251.56;;;4.31;69.25
79129;BME280;68529;43.286;23.360;2023-12-07T05:19:34;99249.00;;;4.30;69.46
79129;BME280;68529;43.286;23.360;2023-12-07T05:21:59;99257.63;;;4.32;69.43
79129;BME280;68529;43.286;23.360;2023-12-07T05:24:25;99257.59;;;4.33;69.30
79129;BME280;68529;43.286;23.360;2023-12-07T05:26:50;99256.88;;;4.19;70.27
79129;BME280;68529;43.286;23.360;2023-12-07T05:29:17;99259.59;;;4.07;70.62
79129;BME280;68529;43.286;23.360;2023-12-07T05:31:42;99262.19;;;4.07;70.77
79129;BME280;68529;43.286;23.360;2023-12-07T05:34:08;99262.97;;;4.13;70.51
79129;BME280;68529;43.286;23.360;2023-12-07T05:36:33;99264.75;;;4.08;70.68
79129;BME280;68529;43.286;23.360;2023-12-07T05:38:58;99269.09;;;4.05;70.74
79129;BME280;68529;43.286;23.360;2023-12-07T05:41:24;99264.78;;;4.07;70.82
79129;BME280;68529;43.286;23.360;2023-12-07T05:43:51;99262.25;;;3.98;71.00
79129;BME280;68529;43.286;23.360;2023-12-07T05:46:16;99262.19;;;4.02;70.97
79129;BME280;68529;43.286;23.360;2023-12-07T05:48:41;99257.81;;;4.09;70.88
79129;BME280;68529;43.286;23.360;2023-12-07T05:51:14;99258.81;;;3.96;71.46
79129;BME280;68529;43.286;23.360;2023-12-07T05:53:40;99266.50;;;4.05;71.22
79129;BME280;68529;43.286;23.360;2023-12-07T05:56:06;99263.00;;;4.10;71.03
79129;BME280;68529;43.286;23.360;2023-12-07T05:58:31;99262.09;;;4.18;70.86
79129;BME280;68529;43.286;23.360;2023-12-07T06:00:58;99257.72;;;4.21;70.63
79129;BME280;68529;43.286;23.360;2023-12-07T06:03:24;99265.44;;;4.27;70.59
79129;BME280;68529;43.286;23.360;2023-12-07T06:05:51;99269.78;;;4.30;70.52
79129;BME280;68529;43.286;23.360;2023-12-07T06:08:16;99271.53;;;4.29;70.60
79129;BME280;68529;43.286;23.360;2023-12-07T06:10:42;99275.84;;;4.29;70.48
79129;BME280;68529;43.286;23.360;2023-12-07T06:13:07;99281.03;;;4.30;70.65
79129;BME280;68529;43.286;23.360;2023-12-07T06:15:33;99284.53;;;4.29;70.43
79129;BME280;68529;43.286;23.360;2023-12-07T06:17:58;99287.13;;;4.29;70.81
79129;BME280;68529;43.286;23.360;2023-12-07T06:20:24;99286.22;;;4.30;70.61
79129;BME280;68529;43.286;23.360;2023-12-07T06:22:49;99288.84;;;4.32;70.67
79129;BME280;68529;43.286;23.360;2023-12-07T06:25:14;99295.75;;;4.31;70.67
79129;BME280;68529;43.286;23.360;2023-12-07T06:27:41;99292.31;;;4.28;70.79
79129;BME280;68529;43.286;23.360;2023-12-07T06:30:07;99293.22;;;4.27;70.92
79129;BME280;68529;43.286;23.360;2023-12-07T06:32:32;99288.00;;;4.28;70.61
79129;BME280;68529;43.286;23.360;2023-12-07T06:34:59;99294.03;;;4.32;70.77
79129;BME280;68529;43.286;23.360;2023-12-07T06:37:24;99305.31;;;4.32;70.74
79129;BME280;68529;43.286;23.360;2023-12-07T06:39:49;99297.50;;;4.31;70.88
79129;BME280;68529;43.286;23.360;2023-12-07T06:42:15;99301.81;;;4.30;70.99
79129;BME280;68529;43.286;23.360;2023-12-07T06:44:43;99300.09;;;4.31;70.75
79129;BME280;68529;43.286;23.360;2023-12-07T06:47:08;99304.41;;;4.33;71.19
79129;BME280;68529;43.286;23.360;2023-12-07T06:49:34;99307.03;;;4.30;71.51
79129;BME280;68529;43.286;23.360;2023-12-07T06:52:01;99305.44;;;4.14;72.07
79129;BME280;68529;43.286;23.360;2023-12-07T06:54:26;99305.47;;;4.09;72.27
79129;BME280;68529;43.286;23.360;2023-12-07T06:56:52;99308.88;;;4.16;72.30
79129;BME280;68529;43.286;23.360;2023-12-07T06:59:17;99303.66;;;4.19;71.98
79129;BME280;68529;43.286;23.360;2023-12-07T07:01:42;99300.16;;;4.26;71.82
79129;BME280;68529;43.286;23.360;2023-12-07T07:04:08;99308.75;;;4.31;71.65
79129;BME280;68529;43.286;23.360;2023-12-07T07:06:33;99311.34;;;4.34;71.52
79129;BME280;68529;43.286;23.360;2023-12-07T07:08:59;99309.56;;;4.36;71.50
79129;BME280;68529;43.286;23.360;2023-12-07T07:11:25;99310.47;;;4.35;71.66
79129;BME280;68529;43.286;23.360;2023-12-07T07:13:50;99310.44;;;4.37;71.73
79129;BME280;68529;43.286;23.360;2023-12-07T07:16:15;99308.72;;;4.37;71.88
79129;BME280;68529;43.286;23.360;2023-12-07T07:18:41;99310.44;;;4.37;71.96
79129;BME280;68529;43.286;23.360;2023-12-07T07:21:07;99317.41;;;4.33;72.14
79129;BME280;68529;43.286;23.360;2023-12-07T07:23:34;99311.31;;;4.36;72.34
79129;BME280;68529;43.286;23.360;2023-12-07T07:26:00;99317.34;;;4.39;72.11
79129;BME280;68529;43.286;23.360;2023-12-07T07:28:25;99312.16;;;4.39;72.27
79129;BME280;68529;43.286;23.360;2023-12-07T07:30:51;99318.25;;;4.38;72.18
79129;BME280;68529;43.286;23.360;2023-12-07T07:33:16;99316.50;;;4.40;72.13
79129;BME280;68529;43.286;23.360;2023-12-07T07:35:42;99324.28;;;4.40;72.22
79129;BME280;68529;43.286;23.360;2023-12-07T07:38:07;99324.31;;;4.37;72.46
79129;BME280;68529;43.286;23.360;2023-12-07T07:40:33;99322.56;;;4.36;72.56
79129;BME280;68529;43.286;23.360;2023-12-07T07:42:58;99330.34;;;4.39;72.61
79129;BME280;68529;43.286;23.360;2023-12-07T07:45:23;99334.66;;;4.42;72.37
79129;BME280;68529;43.286;23.360;2023-12-07T07:47:50;99332.94;;;4.42;72.54
79129;BME280;68529;43.286;23.360;2023-12-07T07:50:15;99333.81;;;4.43;72.64
79129;BME280;68529;43.286;23.360;2023-12-07T07:52:41;99335.53;;;4.42;73.05
79129;BME280;68529;43.286;23.360;2023-12-07T07:55:07;99341.63;;;4.40;72.97
79129;BME280;68529;43.286;23.360;2023-12-07T07:57:33;99345.06;;;4.46;72.69
79129;BME280;68529;43.286;23.360;2023-12-07T07:59:58;99349.50;;;4.31;73.40
79129;BME280;68529;43.286;23.360;2023-12-07T08:02:24;99347.72;;;4.37;73.20
79129;BME280;68529;43.286;23.360;2023-12-07T08:04:49;99357.22;;;4.40;73.13
79129;BME280;68529;43.286;23.360;2023-12-07T08:07:17;99351.97;;;4.46;73.12
79129;BME280;68529;43.286;23.360;2023-12-07T08:09:42;99358.94;;;4.44;73.17
79129;BME280;68529;43.286;23.360;2023-12-07T08:12:07;99352.88;;;4.43;73.15
79129;BME280;68529;43.286;23.360;2023-12-07T08:14:35;99354.59;;;4.43;73.29
79129;BME280;68529;43.286;23.360;2023-12-07T08:17:00;99351.97;;;4.47;73.39
79129;BME280;68529;43.286;23.360;2023-12-07T08:19:26;99357.28;;;4.31;73.74
79129;BME280;68529;43.286;23.360;2023-12-07T08:21:51;99354.66;;;4.37;73.78
79129;BME280;68529;43.286;23.360;2023-12-07T08:24:16;99359.84;;;4.38;73.91
79129;BME280;68529;43.286;23.360;2023-12-07T08:26:42;99362.38;;;4.46;73.80
79129;BME280;68529;43.286;23.360;2023-12-07T08:29:08;99363.38;;;4.30;74.03
79129;BME280;68529;43.286;23.360;2023-12-07T08:31:33;99362.53;;;4.29;74.31
79129;BME280;68529;43.286;23.360;2023-12-07T08:33:58;99367.59;;;4.41;74.07
79129;BME280;68529;43.286;23.360;2023-12-07T08:36:26;99368.50;;;4.39;74.35
79129;BME280;68529;43.286;23.360;2023-12-07T08:38:51;99369.34;;;4.42;74.43
79129;BME280;68529;43.286;23.360;2023-12-07T08:41:16;99371.84;;;4.54;74.21
79129;BME280;68529;43.286;23.360;2023-12-07T08:43:42;99373.59;;;4.52;74.35
79129;BME280;68529;43.286;23.360;2023-12-07T08:46:07;99378.78;;;4.54;74.13
79129;BME280;68529;43.286;23.360;2023-12-07T08:48:33;99376.09;;;4.64;73.93
79129;BME280;68529;43.286;23.360;2023-12-07T08:50:59;99372.59;;;4.68;73.97
79129;BME280;68529;43.286;23.360;2023-12-07T08:53:25;99370.84;;;4.67;74.16
79129;BME280;68529;43.286;23.360;2023-12-07T08:55:53;99368.34;;;4.57;74.66
79129;BME280;68529;43.286;23.360;2023-12-07T08:58:18;99371.81;;;4.59;74.40
79129;BME280;68529;43.286;23.360;2023-12-07T09:00:44;99373.50;;;4.61;74.88
79129;BME280;68529;43.286;23.360;2023-12-07T09:03:09;99372.59;;;4.67;74.63
79129;BME280;68529;43.286;23.360;2023-12-07T09:05:35;99368.28;;;4.66;74.82
79129;BME280;68529;43.286;23.360;2023-12-07T09:08:00;99363.91;;;4.69;74.71
79129;BME280;68529;43.286;23.360;2023-12-07T09:10:26;99371.81;;;4.59;75.05
79129;BME280;68529;43.286;23.360;2023-12-07T09:12:51;99366.59;;;4.60;75.26
79129;BME280;68529;43.286;23.360;2023-12-07T09:15:16;99361.34;;;4.65;75.22
79129;BME280;68529;43.286;23.360;2023-12-07T09:17:42;99364.78;;;4.67;75.20
79129;BME280;68529;43.286;23.360;2023-12-07T09:20:08;99361.41;;;4.59;75.50
79129;BME280;68529;43.286;23.360;2023-12-07T09:22:39;99361.44;;;4.54;75.91
79129;BME280;68529;43.286;23.360;2023-12-07T09:25:06;99357.00;;;4.68;75.42
79129;BME280;68529;43.286;23.360;2023-12-07T09:27:33;99362.09;;;4.76;75.16
79129;BME280;68529;43.286;23.360;2023-12-07T09:30:00;99361.16;;;4.83;75.06
79129;BME280;68529;43.286;23.360;2023-12-07T09:32:25;99358.50;;;4.89;74.81
79129;BME280;68529;43.286;23.360;2023-12-07T09:34:53;99364.56;;;4.93;75.07
79129;BME280;68529;43.286;23.360;2023-12-07T09:37:18;99361.06;;;4.95;74.77
79129;BME280;68529;43.286;23.360;2023-12-07T09:39:44;99356.66;;;5.02;74.70
79129;BME280;68529;43.286;23.360;2023-12-07T09:42:10;99361.81;;;5.08;74.16
79129;BME280;68529;43.286;23.360;2023-12-07T09:44:35;99356.53;;;5.11;74.09
79129;BME280;68529;43.286;23.360;2023-12-07T09:47:01;99362.59;;;5.11;74.43
79129;BME280;68529;43.286;23.360;2023-12-07T09:49:26;99366.22;;;4.98;74.56
79129;BME280;68529;43.286;23.360;2023-12-07T09:51:52;99359.22;;;5.03;74.38
79129;BME280;68529;43.286;23.360;2023-12-07T09:54:20;99360.00;;;5.11;74.04
79129;BME280;68529;43.286;23.360;2023-12-07T09:56:47;99355.63;;;5.15;73.87
79129;BME280;68529;43.286;23.360;2023-12-07T09:59:12;99364.28;;;5.18;73.51
79129;BME280;68529;43.286;23.360;2023-12-07T10:01:37;99368.59;;;5.21;73.57
79129;BME280;68529;43.286;23.360;2023-12-07T10:04:20;99359.88;;;5.23;73.17
79129;BME280;68529;43.286;23.360;2023-12-07T10:06:47;99356.38;;;5.26;73.20
79129;BME280;68529;43.286;23.360;2023-12-07T10:09:14;99363.31;;;5.27;73.18
79129;BME280;68529;43.286;23.360;2023-12-07T10:11:41;99355.44;;;5.32;73.27
79129;BME280;68529;43.286;23.360;2023-12-07T10:14:11;99351.06;;;5.34;73.15
79129;BME280;68529;43.286;23.360;2023-12-07T10:16:37;99366.72;;;5.32;73.26
79129;BME280;68529;43.286;23.360;2023-12-07T10:19:13;99359.78;;;5.31;73.33
79129;BME280;68529;43.286;23.360;2023-12-07T10:21:40;99363.28;;;5.30;72.91
79129;BME280;68529;43.286;23.360;2023-12-07T10:24:05;99351.97;;;5.31;72.82
79129;BME280;68529;43.286;23.360;2023-12-07T10:26:31;99357.19;;;5.31;72.67
79129;BME280;68529;43.286;23.360;2023-12-07T10:28:57;99352.84;;;5.33;72.57
79129;BME280;68529;43.286;23.360;2023-12-07T10:31:23;99351.06;;;5.35;72.52
79129;BME280;68529;43.286;23.360;2023-12-07T10:33:49;99351.91;;;5.37;72.60
79129;BME280;68529;43.286;23.360;2023-12-07T10:36:15;99352.72;;;5.44;72.65
79129;BME280;68529;43.286;23.360;2023-12-07T10:38:40;99346.56;;;5.48;72.19
79129;BME280;68529;43.286;23.360;2023-12-07T10:41:12;99353.47;;;5.52;72.10
79129;BME280;68529;43.286;23.360;2023-12-07T10:43:42;99354.34;;;5.51;71.67
79129;BME280;68529;43.286;23.360;2023-12-07T10:46:09;99353.47;;;5.52;71.87
79129;BME280;68529;43.286;23.360;2023-12-07T10:48:36;99353.47;;;5.50;71.95
79129;BME280;68529;43.286;23.360;2023-12-07T10:51:06;99356.00;;;5.56;71.76
79129;BME280;68529;43.286;23.360;2023-12-07T10:53:41;99351.69;;;5.55;71.82
79129;BME280;68529;43.286;23.360;2023-12-07T10:56:25;99358.72;;;5.47;72.38
79129;BME280;68529;43.286;23.360;2023-12-07T10:58:55;99361.28;;;5.50;72.27
79129;BME280;68529;43.286;23.360;2023-12-07T11:01:21;99355.25;;;5.50;72.29
79129;BME280;68529;43.286;23.360;2023-12-07T11:03:49;99354.38;;;5.48;72.04
79129;BME280;68529;43.286;23.360;2023-12-07T11:06:15;99356.19;;;5.43;72.13
79129;BME280;68529;43.286;23.360;2023-12-07T11:08:47;99351.91;;;5.39;72.39
79129;BME280;68529;43.286;23.360;2023-12-07T11:11:54;99358.91;;;5.30;72.43
79129;BME280;68529;43.286;23.360;2023-12-07T11:14:12;99363.19;;;5.36;72.39
79129;BME280;68529;43.286;23.360;2023-12-07T11:16:42;99356.28;;;5.35;72.38
79129;BME280;68529;43.286;23.360;2023-12-07T11:21:56;99355.28;;;5.45;71.94
79129;BME280;68529;43.286;23.360;2023-12-07T11:24:23;99354.44;;;5.43;71.95
79129;BME280;68529;43.286;23.360;2023-12-07T11:26:49;99353.75;;;5.29;71.93
79129;BME280;68529;43.286;23.360;2023-12-07T11:29:19;99353.78;;;5.27;72.13
79129;BME280;68529;43.286;23.360;2023-12-07T11:31:48;99354.63;;;5.28;71.88
79129;BME280;68529;43.286;23.360;2023-12-07T11:34:13;99354.59;;;5.31;71.73
79129;BME280;68529;43.286;23.360;2023-12-07T11:36:40;99358.88;;;5.34;71.90
79129;BME280;68529;43.286;23.360;2023-12-07T11:41:50;99349.38;;;5.33;71.92
79129;BME280;68529;43.286;23.360;2023-12-07T11:44:17;99350.28;;;5.28;71.95
79129;BME280;68529;43.286;23.360;2023-12-07T11:46:42;99348.56;;;5.27;72.30
79129;BME280;68529;43.286;23.360;2023-12-07T11:49:08;99350.28;;;5.30;71.96
79129;BME280;68529;43.286;23.360;2023-12-07T11:51:36;99352.00;;;5.29;72.02
79129;BME280;68529;43.286;23.360;2023-12-07T11:54:02;99347.69;;;5.27;72.11
79129;BME280;68529;43.286;23.360;2023-12-07T11:56:27;99358.16;;;5.24;71.98
79129;BME280;68529;43.286;23.360;2023-12-07T11:58:53;99360.75;;;5.24;71.87
79129;BME280;68529;43.286;23.360;2023-12-07T12:01:18;99355.53;;;5.22;71.82
79129;BME280;68529;43.286;23.360;2023-12-07T12:03:43;99359.88;;;5.23;71.75
79129;BME280;68529;43.286;23.360;2023-12-07T12:06:09;99364.25;;;5.21;71.99
79129;BME280;68529;43.286;23.360;2023-12-07T12:08:38;99365.97;;;5.22;72.02
79129;BME280;68529;43.286;23.360;2023-12-07T12:11:04;99360.84;;;5.16;71.58
79129;BME280;68529;43.286;23.360;2023-12-07T12:13:34;99366.94;;;5.12;71.96
79129;BME280;68529;43.286;23.360;2023-12-07T12:16:00;99368.66;;;5.15;71.90
79129;BME280;68529;43.286;23.360;2023-12-07T12:18:26;99367.81;;;5.13;71.95
79129;BME280;68529;43.286;23.360;2023-12-07T12:20:53;99364.34;;;5.12;71.73
79129;BME280;68529;43.286;23.360;2023-12-07T12:23:18;99365.22;;;5.13;72.02
79129;BME280;68529;43.286;23.360;2023-12-07T12:25:44;99367.75;;;5.17;71.80
79129;BME280;68529;43.286;23.360;2023-12-07T12:28:10;99366.84;;;5.20;72.16
79129;BME280;68529;43.286;23.360;2023-12-07T12:30:36;99371.16;;;5.22;71.80
79129;BME280;68529;43.286;23.360;2023-12-07T12:33:02;99370.31;;;5.23;72.05
79129;BME280;68529;43.286;23.360;2023-12-07T12:35:28;99379.00;;;5.19;71.65
79129;BME280;68529;43.286;23.360;2023-12-07T12:37:54;99375.59;;;5.16;71.75
79129;BME280;68529;43.286;23.360;2023-12-07T12:40:22;99379.97;;;5.11;71.70
79129;BME280;68529;43.286;23.360;2023-12-07T12:42:50;99381.75;;;5.07;71.55
79129;BME280;68529;43.286;23.360;2023-12-07T12:45:17;99375.75;;;5.02;71.33
79129;BME280;68529;43.286;23.360;2023-12-07T12:47:44;99384.41;;;5.00;71.54
79129;BME280;68529;43.286;23.360;2023-12-07T12:50:10;99378.38;;;4.99;71.61
79129;BME280;68529;43.286;23.360;2023-12-07T12:52:36;99387.06;;;4.98;71.27
79129;BME280;68529;43.286;23.360;2023-12-07T12:55:07;99387.94;;;4.94;71.31
79129;BME280;68529;43.286;23.360;2023-12-07T12:57:34;99386.22;;;4.95;71.16
79129;BME280;68529;43.286;23.360;2023-12-07T13:00:01;99386.22;;;4.92;71.25
79129;BME280;68529;43.286;23.360;2023-12-07T13:02:27;99388.00;;;4.91;71.36